VEGTVQPR

Guest
Details From VEGT - GUWAHATI INTL
To VQPR - PARO
Flight Number -
Tags generated
Created
Modified
Stats Distance 146 nm / 270 km
Max Altitude 18,200 ft / 5,547 m
Waypoints 4
Social Downloads 1
Likes 0
Share VATSIM

Download

Looking for another format? Having issues loading an existing format? Contact us
Advertisement - Login to hide

Notes

Basic altitude profile: - Ascent Rate: 2500ft/min - Ascent Speed: 250kts - Cruise Altitude: 35000ft - Cruise Speed: 420kts - Descent Rate: 1500ft/min - Descent Speed: 250kts Options: - Use NATs: yes - Use PACOTS: yes - Use low airways: yes - Use high airways: yes

Route

VEGT GGT W45 DUKUM VQPR

ID Type Via Altitude Latitude Longitude Leg Dist Tot Dist Heading (true) Name
O VEGT APT - 0 ft / 0 m 26.10609˚ 91.58594˚ - 0 nm - GUWAHATI INTL
GGT VOR - 0 ft / 0 m 26.10189˚ 91.58574˚ 0 nm 0 nm 182° / 182° GUWAHATI VOR-DME
DUKUM FIX W45 (AWY-LO) 18,200 ft / 5,547 m 26.27547˚ 90.66363˚ 50 nm 51 nm 282° / 282° -
O VQPR APT - 0 ft / 0 m 27.40319˚ 89.42461˚ 94 nm 145 nm 316° / 315° PARO

Altitude Profile

Advertisement - Login to hide

VEGT

Details ICAO VEGT (GAU)
Name GUWAHATI INTL
Region India
Timezone Asia/Kolkata (UTC+5.5)
Stats Elevation 162 ft / 49 m (AMSL)
Location 26.106091° 91.585940°
Runways 1
Magnetic Variation 0.159° W

METAR

VEGT 150630Z 35004KT 1500 BR FEW010 SCT100 24/21 Q1015 BECMG 2000 BR

Decode

TAF

Not found

Departure Runways

ID Width Length Bearing (true) Bearing (mag) Surface Threshold Offset Overrun Length
02 150 ft / 46 m 9,028 ft / 2,752 m 22.66° 22.82° Asphalt 0 ft / 0 m 0 ft / 0 m
20 150 ft / 46 m 9,028 ft / 2,752 m 202.66° 202.82° Asphalt 0 ft / 0 m 0 ft / 0 m

VQPR

Details ICAO VQPR (PBH)
Name PARO
Region Bhutan
Timezone Asia/Thimphu (UTC+6.0)
Stats Elevation 7,332 ft / 2,235 m (AMSL)
Location 27.403190° 89.424605°
Runways 1
Magnetic Variation 0.125° E

METAR

VQPR 150630Z 20003KT 9999 SKC 17/M11 Q1020

Decode

TAF

Not found

Destination Runways

ID Width Length Bearing (true) Bearing (mag) Surface Threshold Offset Overrun Length
15 95 ft / 29 m 6,462 ft / 1,970 m 150.65° 150.53° Asphalt 0 ft / 0 m 390 ft / 119 m
33 95 ft / 29 m 6,462 ft / 1,970 m 330.65° 330.53° Asphalt 0 ft / 0 m 217 ft / 66 m

Popular Alternatives